createdAt,value
2017-09-29T00:00:48.903Z,68.91
2017-09-29T00:01:49.251Z,68.62
2017-09-29T00:02:49.270Z,68.91
2017-09-29T00:03:49.287Z,69.1
2017-09-29T00:04:49.312Z,69.1
2017-09-29T00:05:49.009Z,69.01
2017-09-29T00:06:49.028Z,68.81
2017-09-29T00:07:49.379Z,69.01
2017-09-29T00:08:49.070Z,69.2
2017-09-29T00:09:49.412Z,69.01
2017-09-29T00:10:49.108Z,69.29
2017-09-29T00:11:49.461Z,69.01
2017-09-29T00:12:49.150Z,68.62
2017-09-29T00:13:49.168Z,69.29
2017-09-29T00:14:49.189Z,69.77
2017-09-29T00:15:49.529Z,68.91
2017-09-29T00:16:49.553Z,69.58
2017-09-29T00:17:49.572Z,69.68
2017-09-29T00:18:49.269Z,69.48
2017-09-29T00:19:49.615Z,69.39
2017-09-29T00:20:49.311Z,70.25
2017-09-29T00:21:49.658Z,69.39
2017-09-29T00:22:49.679Z,69.68
2017-09-29T00:23:49.373Z,70.06
2017-09-29T00:24:49.717Z,69.77
2017-09-29T00:25:49.410Z,69.68
2017-09-29T00:26:49.441Z,69.68
2017-09-29T00:27:49.782Z,70.25
2017-09-29T00:28:49.469Z,69.77
2017-09-29T00:29:49.492Z,69.77
2017-09-29T00:30:49.512Z,69.96
2017-09-29T00:31:49.534Z,69.68
2017-09-29T00:32:49.551Z,69.87
2017-09-29T00:33:49.570Z,69.68
2017-09-29T00:34:49.599Z,69.96
2017-09-29T00:35:49.614Z,70.35
2017-09-29T00:36:49.633Z,69.48
2017-09-29T00:37:49.972Z,70.15
2017-09-29T00:38:49.995Z,70.06
2017-09-29T00:39:50.018Z,69.77
2017-09-29T00:40:49.710Z,69.68
2017-09-29T00:41:50.061Z,69.77
2017-09-29T00:42:50.083Z,70.44
2017-09-29T00:43:50.099Z,69.68
2017-09-29T00:44:49.796Z,69.87
2017-09-29T00:45:49.816Z,69.68
2017-09-29T00:46:50.158Z,70.73
2017-09-29T00:47:50.177Z,69.87
2017-09-29T00:48:50.196Z,69.58
2017-09-29T00:49:50.217Z,69.48
2017-09-29T00:50:49.912Z,70.25
2017-09-29T00:51:50.256Z,70.64
2017-09-29T00:52:49.948Z,69.96
2017-09-29T00:53:50.498Z,70.64
2017-09-29T00:54:50.321Z,70.64
2017-09-29T00:55:50.334Z,70.15
2017-09-29T00:56:50.350Z,70.54
2017-09-29T00:57:50.374Z,70.15
2017-09-29T00:58:50.394Z,69.96
2017-09-29T00:59:50.091Z,69.68
2017-09-29T01:00:50.111Z,70.06
2017-09-29T01:01:50.450Z,70.15
2017-09-29T01:02:50.163Z,69.68
2017-09-29T01:03:50.498Z,70.73
2017-09-29T01:04:50.520Z,69.96
2017-09-29T01:05:50.533Z,69.68
2017-09-29T01:06:50.561Z,70.15
2017-09-29T01:07:50.250Z,69.77
2017-09-29T01:08:50.281Z,70.06
2017-09-29T01:09:50.612Z,69.96
2017-09-29T01:10:50.310Z,69.77
2017-09-29T01:11:50.332Z,69.87
2017-09-29T01:12:50.361Z,69.68
2017-09-29T01:13:50.692Z,70.06
2017-09-29T01:14:50.713Z,70.64
2017-09-29T01:15:50.414Z,70.73
2017-09-29T01:16:50.429Z,70.25
2017-09-29T01:17:50.449Z,70.21
2017-09-29T01:18:50.480Z,70.15
2017-09-29T01:19:50.490Z,70.06
2017-09-29T01:20:50.833Z,70.15
2017-09-29T01:21:50.531Z,70.64
2017-09-29T01:22:50.872Z,70.7
2017-09-29T01:23:50.891Z,70.64
2017-09-29T01:24:50.604Z,69.93
2017-09-29T01:25:50.935Z,69.93
2017-09-29T01:26:50.954Z,69.64
2017-09-29T01:27:50.971Z,70.12
2017-09-29T01:28:50.671Z,70.6
2017-09-29T01:29:51.012Z,70.12
2017-09-29T01:30:51.031Z,70.7
2017-09-29T01:31:50.729Z,69.93
2017-09-29T01:32:50.750Z,70.03
2017-09-29T01:33:51.103Z,70.31
2017-09-29T01:34:51.110Z,70.03
2017-09-29T01:35:51.129Z,69.93
2017-09-29T01:36:51.151Z,70.41
2017-09-29T01:37:51.175Z,70.31
2017-09-29T01:38:51.201Z,71.08
2017-09-29T01:39:51.214Z,70.79
2017-09-29T01:40:51.234Z,70.98
2017-09-29T01:41:50.945Z,70.31
2017-09-29T01:42:51.280Z,70.31
2017-09-29T01:43:50.978Z,70.12
2017-09-29T01:44:51.313Z,70.41
2017-09-29T01:45:51.333Z,69.74
2017-09-29T01:46:51.032Z,69.83
2017-09-29T01:47:51.398Z,70.21
2017-09-29T01:48:51.396Z,70.21
2017-09-29T01:49:51.088Z,70.21
2017-09-29T01:50:51.108Z,70.41
2017-09-29T01:51:51.453Z,71.08
2017-09-29T01:52:51.156Z,71.08
2017-09-29T01:53:51.176Z,69.93
2017-09-29T01:54:51.186Z,69.74
2017-09-29T01:55:51.539Z,70.03
2017-09-29T01:56:51.243Z,70.21
2017-09-29T01:57:51.569Z,69.74
2017-09-29T01:58:51.590Z,70.03
2017-09-29T01:59:51.612Z,70.31
2017-09-29T02:00:51.318Z,70.03
2017-09-29T02:01:51.326Z,70.7
2017-09-29T02:02:51.667Z,70.12
2017-09-29T02:03:51.688Z,70.5
2017-09-29T02:04:51.707Z,71.08
2017-09-29T02:05:51.407Z,70.41
2017-09-29T02:06:51.426Z,70.12
2017-09-29T02:07:51.767Z,70.12
2017-09-29T02:08:51.674Z,70.03
2017-09-29T02:09:51.485Z,69.83
2017-09-29T02:10:51.839Z,70.5
2017-09-29T02:11:51.528Z,70.7
2017-09-29T02:12:51.871Z,69.74
2017-09-29T02:13:51.895Z,70.03
2017-09-29T02:14:51.589Z,69.93
2017-09-29T02:15:51.603Z,70.41
2017-09-29T02:16:51.948Z,69.93
2017-09-29T02:17:51.655Z,69.83
2017-09-29T02:18:51.664Z,69.83
2017-09-29T02:19:52.007Z,69.83
2017-09-29T02:20:52.024Z,69.74
2017-09-29T02:21:52.047Z,70.21
2017-09-29T02:22:52.106Z,69.83
2017-09-29T02:23:51.763Z,69.74
2017-09-29T02:24:52.109Z,69.74
2017-09-29T02:25:52.128Z,70.5
2017-09-29T02:26:51.821Z,70.09
2017-09-29T02:27:52.162Z,69.83
2017-09-29T02:28:51.864Z,70.03
2017-09-29T02:29:52.203Z,69.8
2017-09-29T02:30:52.243Z,70.03
2017-09-29T02:31:52.242Z,70.03
2017-09-29T02:32:51.939Z,69.93
2017-09-29T02:33:51.959Z,69.99
2017-09-29T02:34:52.301Z,70.18
2017-09-29T02:35:52.324Z,70.21
2017-09-29T02:36:52.374Z,69.99
2017-09-29T02:37:52.039Z,70.18
2017-09-29T02:38:52.386Z,70.28
2017-09-29T02:39:52.400Z,70.76
2017-09-29T02:40:52.419Z,70.85
2017-09-29T02:41:52.443Z,70.85
2017-09-29T02:42:52.668Z,70.76
2017-09-29T02:43:52.481Z,70.85
2017-09-29T02:44:52.501Z,70.47
2017-09-29T02:45:52.525Z,70.85
2017-09-29T02:46:52.542Z,70.85
2017-09-29T02:47:52.584Z,70.37
2017-09-29T02:48:52.259Z,70.56
2017-09-29T02:49:52.599Z,70.56
2017-09-29T02:50:52.619Z,70.47
2017-09-29T02:51:52.640Z,70.47
2017-09-29T02:52:52.653Z,71.14
2017-09-29T02:53:52.678Z,70.47
2017-09-29T02:54:52.694Z,70.66
2017-09-29T02:55:52.716Z,70.56
2017-09-29T02:56:52.735Z,70.76
2017-09-29T02:57:52.434Z,70.95
2017-09-29T02:58:52.451Z,70.85
2017-09-29T02:59:52.996Z,70.66
2017-09-29T03:00:52.491Z,70.76
2017-09-29T03:01:52.833Z,70.85
2017-09-29T03:02:52.530Z,70.85
2017-09-29T03:03:52.872Z,70.76
2017-09-29T03:04:52.898Z,70.76
2017-09-29T03:05:52.601Z,70.85
2017-09-29T03:06:52.929Z,70.76
2017-09-29T03:07:52.627Z,70.76
2017-09-29T03:08:52.970Z,70.76
2017-09-29T03:09:52.994Z,70.66
2017-09-29T03:10:53.070Z,70.56
2017-09-29T03:11:53.029Z,70.66
2017-09-29T03:12:53.046Z,70.85
2017-09-29T03:13:52.743Z,70.76
2017-09-29T03:14:52.775Z,70.95
2017-09-29T03:15:53.113Z,70.66
2017-09-29T03:16:53.139Z,71.04
2017-09-29T03:17:52.828Z,71.04
2017-09-29T03:18:52.841Z,71.04
2017-09-29T03:19:53.185Z,70.85
2017-09-29T03:20:53.203Z,70.66
2017-09-29T03:21:53.234Z,70.85
2017-09-29T03:22:52.931Z,71.04
2017-09-29T03:23:53.267Z,71.14
2017-09-29T03:24:52.971Z,70.85
2017-09-29T03:25:53.355Z,70.66
2017-09-29T03:26:53.321Z,71.23
2017-09-29T03:27:53.021Z,71.14
2017-09-29T03:28:53.363Z,71.14
2017-09-29T03:29:53.090Z,70.95
2017-09-29T03:30:53.082Z,71.23
2017-09-29T03:31:53.098Z,70.95
2017-09-29T03:32:53.444Z,70.85
2017-09-29T03:33:53.458Z,71.14
2017-09-29T03:34:53.501Z,71.14
2017-09-29T03:35:53.178Z,70.85
2017-09-29T03:36:53.229Z,70.76
2017-09-29T03:37:53.213Z,70.66
2017-09-29T03:38:53.231Z,71.04
2017-09-29T03:39:53.581Z,70.56
2017-09-29T03:40:53.643Z,70.95
2017-09-29T03:41:53.623Z,71.04
2017-09-29T03:42:53.651Z,70.85
2017-09-29T03:43:53.657Z,70.95
2017-09-29T03:44:53.351Z,71.62
2017-09-29T03:45:53.372Z,70.66
2017-09-29T03:46:53.712Z,70.95
2017-09-29T03:47:53.731Z,70.85
2017-09-29T03:48:53.755Z,70.95
2017-09-29T03:49:53.809Z,71.33
2017-09-29T03:50:53.468Z,71.42
2017-09-29T03:51:53.817Z,71.23
2017-09-29T03:52:53.516Z,71.23
2017-09-29T03:53:53.956Z,71.62
2017-09-29T03:54:53.873Z,70.95
2017-09-29T03:55:53.886Z,71.23
2017-09-29T03:56:53.906Z,71.23
2017-09-29T03:57:53.979Z,70.95
2017-09-29T03:58:53.715Z,71.23
2017-09-29T03:59:53.642Z,71.14
2017-09-29T04:00:53.673Z,71.23
2017-09-29T04:01:54.010Z,71.71
2017-09-29T04:02:53.703Z,71.52
2017-09-29T04:03:54.044Z,71.62
2017-09-29T04:04:53.742Z,71.71
2017-09-29T04:05:54.085Z,71.52
2017-09-29T04:06:54.102Z,71.52
2017-09-29T04:07:54.117Z,71.62
2017-09-29T04:08:53.824Z,71.62
2017-09-29T04:09:54.223Z,71.71
2017-09-29T04:10:53.863Z,71.71
2017-09-29T04:11:54.197Z,71.62
2017-09-29T04:12:53.946Z,71.39
2017-09-29T04:13:54.484Z,71.48
2017-09-29T04:14:54.259Z,71.52
2017-09-29T04:15:54.273Z,71.52
2017-09-29T04:16:53.971Z,71.52
2017-09-29T04:17:54.316Z,71.33
2017-09-29T04:18:54.333Z,71.42
2017-09-29T04:19:54.356Z,71.58
2017-09-29T04:20:54.377Z,71.62
2017-09-29T04:21:54.395Z,71.52
2017-09-29T04:22:54.100Z,71.23
2017-09-29T04:23:54.429Z,71.33
2017-09-29T04:24:54.144Z,71.48
2017-09-29T04:25:54.179Z,71.3
2017-09-29T04:26:54.177Z,71.3
2017-09-29T04:27:54.198Z,71.48
2017-09-29T04:28:54.210Z,71.68
2017-09-29T04:29:54.545Z,71.68
2017-09-29T04:30:54.247Z,71.58
2017-09-29T04:31:54.274Z,71.68
2017-09-29T04:32:54.604Z,71.68
2017-09-29T04:33:54.623Z,71.68
2017-09-29T04:34:54.652Z,71.3
2017-09-29T04:35:54.662Z,71.68
2017-09-29T04:36:54.721Z,71.48
2017-09-29T04:37:54.704Z,71.48
2017-09-29T04:38:54.397Z,71.48
2017-09-29T04:39:54.749Z,71.58
2017-09-29T04:40:54.767Z,71.48
2017-09-29T04:41:54.456Z,71.2
2017-09-29T04:42:54.805Z,71.48
2017-09-29T04:43:54.820Z,71.68
2017-09-29T04:44:54.837Z,71.68
2017-09-29T04:45:54.858Z,71.68
2017-09-29T04:46:54.876Z,71.39
2017-09-29T04:47:54.932Z,71.2
2017-09-29T04:48:54.593Z,71.3
2017-09-29T04:49:54.628Z,71.48
2017-09-29T04:50:54.962Z,71.39
2017-09-29T04:51:54.970Z,71.39
2017-09-29T04:52:54.989Z,71.3
2017-09-29T04:53:55.011Z,71.3
2017-09-29T04:54:54.730Z,71.2
2017-09-29T04:55:54.725Z,71.58
2017-09-29T04:56:55.067Z,71.2
2017-09-29T04:57:54.777Z,71.3
2017-09-29T04:58:54.799Z,71.2
2017-09-29T04:59:55.131Z,71.2
2017-09-29T05:00:54.823Z,71.39
2017-09-29T05:01:55.165Z,71.2
2017-09-29T05:02:54.861Z,71.58
2017-09-29T05:03:54.880Z,71.39
2017-09-29T05:04:55.222Z,71.3
2017-09-29T05:05:54.919Z,71.3
2017-09-29T05:06:55.265Z,71.3
2017-09-29T05:07:54.972Z,71.58
2017-09-29T05:08:55.302Z,71.2
2017-09-29T05:09:55.002Z,71.3
2017-09-29T05:10:55.546Z,71.58
2017-09-29T05:11:55.354Z,71.77
2017-09-29T05:12:55.377Z,71.77
2017-09-29T05:13:55.397Z,71.77
2017-09-29T05:14:55.120Z,71.87
2017-09-29T05:15:55.430Z,71.58
2017-09-29T05:16:55.459Z,71.68
2017-09-29T05:17:55.472Z,71.68
2017-09-29T05:18:55.170Z,71.77
2017-09-29T05:19:55.514Z,71.68
2017-09-29T05:20:55.209Z,72.16
2017-09-29T05:21:55.231Z,71.77
2017-09-29T05:22:55.569Z,71.97
2017-09-29T05:23:55.276Z,71.77
2017-09-29T05:24:55.606Z,71.87
2017-09-29T05:25:55.302Z,71.58
2017-09-29T05:26:55.645Z,71.68
2017-09-29T05:27:55.345Z,71.77
2017-09-29T05:28:55.768Z,71.58
2017-09-29T05:29:55.702Z,71.68
2017-09-29T05:30:55.409Z,71.58
2017-09-29T05:31:55.416Z,71.58
2017-09-29T05:32:55.760Z,71.39
2017-09-29T05:33:55.466Z,71.48
2017-09-29T05:34:55.482Z,71.48
2017-09-29T05:35:55.501Z,71.39
2017-09-29T05:36:55.511Z,71.48
2017-09-29T05:37:55.858Z,71.58
2017-09-29T05:38:55.551Z,71.3
2017-09-29T05:39:55.893Z,71.64
2017-09-29T05:40:55.920Z,71.58
2017-09-29T05:41:55.932Z,71.77
2017-09-29T05:42:55.629Z,71.77
2017-09-29T05:43:55.972Z,72.16
2017-09-29T05:44:55.987Z,72.02
2017-09-29T05:45:56.006Z,71.97
2017-09-29T05:46:56.033Z,71.93
2017-09-29T05:47:56.062Z,72.06
2017-09-29T05:48:56.064Z,71.87
2017-09-29T05:49:56.090Z,71.68
2017-09-29T05:50:56.105Z,71.87
2017-09-29T05:51:56.121Z,71.64
2017-09-29T05:52:56.148Z,71.64
2017-09-29T05:53:55.837Z,71.93
2017-09-29T05:54:55.856Z,72.22
2017-09-29T05:55:56.205Z,72.44
2017-09-29T05:56:56.216Z,72.06
2017-09-29T05:57:56.238Z,72.73
2017-09-29T05:58:56.254Z,72.73
2017-09-29T05:59:56.274Z,72.83
2017-09-29T06:00:56.295Z,72.63
2017-09-29T06:01:55.991Z,72.54
2017-09-29T06:02:56.011Z,72.54
2017-09-29T06:03:56.351Z,72.63
2017-09-29T06:04:56.371Z,72.54
2017-09-29T06:05:56.398Z,72.34
2017-09-29T06:06:56.087Z,72.54
2017-09-29T06:07:56.136Z,72.54
2017-09-29T06:08:56.124Z,72.54
2017-09-29T06:09:56.143Z,72.83
2017-09-29T06:10:56.490Z,72.73
2017-09-29T06:11:56.505Z,72.73
2017-09-29T06:12:56.522Z,72.34
2017-09-29T06:13:56.221Z,72.44
2017-09-29T06:14:56.241Z,72.63
2017-09-29T06:15:56.580Z,72.44
2017-09-29T06:16:56.603Z,72.34
2017-09-29T06:17:56.618Z,72.73
2017-09-29T06:18:56.639Z,72.63
2017-09-29T06:19:56.656Z,72.34
2017-09-29T06:20:56.682Z,72.44
2017-09-29T06:21:56.702Z,72.48
2017-09-29T06:22:56.394Z,72.77
2017-09-29T06:23:56.733Z,72.77
2017-09-29T06:24:56.641Z,72.67
2017-09-29T06:25:56.773Z,72.58
2017-09-29T06:26:56.816Z,72.58
2017-09-29T06:27:56.811Z,72.58
2017-09-29T06:28:56.853Z,72.67
2017-09-29T06:29:56.526Z,72.67
2017-09-29T06:30:56.560Z,72.67
2017-09-29T06:31:56.563Z,72.86
2017-09-29T06:32:56.914Z,72.86
2017-09-29T06:33:56.937Z,72.58
2017-09-29T06:34:56.621Z,72.58
2017-09-29T06:35:56.961Z,72.67
2017-09-29T06:36:56.673Z,72.58
2017-09-29T06:37:56.679Z,72.8
2017-09-29T06:38:57.025Z,72.52
2017-09-29T06:39:56.720Z,72.52
2017-09-29T06:40:56.739Z,72.42
2017-09-29T06:41:56.756Z,72.99
2017-09-29T06:42:57.098Z,72.42
2017-09-29T06:43:56.794Z,72.71
2017-09-29T06:44:56.814Z,72.32
2017-09-29T06:45:56.833Z,72.61
2017-09-29T06:46:56.860Z,72.13
2017-09-29T06:47:57.197Z,72.23
2017-09-29T06:48:57.213Z,72.03
2017-09-29T06:49:56.929Z,71.88
2017-09-29T06:50:56.937Z,71.75
2017-09-29T06:51:57.276Z,71.98
2017-09-29T06:52:56.967Z,71.98
2017-09-29T06:53:57.314Z,72.17
2017-09-29T06:54:57.007Z,72.07
2017-09-29T06:55:57.351Z,72.17
2017-09-29T06:56:57.372Z,71.98
2017-09-29T06:57:57.069Z,72.17
2017-09-29T06:58:57.415Z,72.07
2017-09-29T06:59:57.104Z,71.21
2017-09-29T07:00:57.152Z,71.31
2017-09-29T07:01:57.469Z,71.4
2017-09-29T07:02:57.486Z,71.59
2017-09-29T07:03:57.389Z,71.4
2017-09-29T07:04:57.523Z,71.69
2017-09-29T07:05:57.550Z,71.69
2017-09-29T07:06:57.566Z,71.72
2017-09-29T07:07:57.581Z,71.53
2017-09-29T07:08:57.290Z,71.25
2017-09-29T07:09:57.309Z,71.44
2017-09-29T07:10:57.660Z,71.05
2017-09-29T07:11:57.352Z,71.44
2017-09-29T07:12:57.683Z,71.15
2017-09-29T07:13:57.394Z,71.63
2017-09-29T07:14:57.399Z,70.67
2017-09-29T07:15:57.426Z,70.96
2017-09-29T07:16:57.758Z,71.44
2017-09-29T07:17:57.777Z,71.05
2017-09-29T07:18:57.474Z,70.96
2017-09-29T07:19:57.495Z,71.05
2017-09-29T07:20:57.514Z,70.7
2017-09-29T07:21:57.534Z,70.9
2017-09-29T07:22:57.876Z,70.99
2017-09-29T07:23:57.902Z,70.8
2017-09-29T07:24:57.597Z,70.9
2017-09-29T07:25:57.937Z,70.99
2017-09-29T07:26:57.632Z,70.42
2017-09-29T07:27:57.981Z,70.8
2017-09-29T07:28:57.671Z,70.42
2017-09-29T07:29:57.705Z,70.8
2017-09-29T07:30:58.044Z,70.7
2017-09-29T07:31:57.732Z,70.42
2017-09-29T07:32:58.075Z,70.32
2017-09-29T07:33:58.093Z,70.61
2017-09-29T07:34:58.116Z,69.78
2017-09-29T07:35:57.811Z,70.17
2017-09-29T07:36:57.833Z,69.97
2017-09-29T07:37:58.172Z,70.36
2017-09-29T07:38:57.888Z,69.59
2017-09-29T07:39:57.890Z,69.78
2017-09-29T07:40:58.236Z,69.87
2017-09-29T07:41:57.935Z,69.78
2017-09-29T07:42:57.952Z,69.59
2017-09-29T07:43:58.297Z,69.68
2017-09-29T07:44:58.002Z,69.49
2017-09-29T07:45:58.335Z,69.11
2017-09-29T07:46:58.035Z,69.78
2017-09-29T07:47:58.376Z,69.49
2017-09-29T07:48:58.289Z,69.14
2017-09-29T07:49:58.091Z,69.24
2017-09-29T07:50:58.445Z,69.14
2017-09-29T07:51:58.462Z,68.95
2017-09-29T07:52:58.477Z,69.14
2017-09-29T07:53:58.494Z,69.43
2017-09-29T07:54:58.514Z,69.14
2017-09-29T07:55:58.536Z,69.43
2017-09-29T07:56:58.556Z,68.95
2017-09-29T07:57:58.462Z,69.24
2017-09-29T07:58:58.287Z,69.14
2017-09-29T07:59:58.619Z,69.14
2017-09-29T08:00:58.315Z,68.18
2017-09-29T08:01:58.658Z,68.37
2017-09-29T08:02:58.676Z,68.41
2017-09-29T08:03:58.377Z,68.12
2017-09-29T08:04:58.395Z,68.7
2017-09-29T08:05:58.415Z,68.21
2017-09-29T08:06:58.437Z,68.98
2017-09-29T08:07:58.456Z,68.89
2017-09-29T08:08:58.479Z,68.12
2017-09-29T08:09:58.818Z,68.21
2017-09-29T08:10:58.840Z,67.48
2017-09-29T08:11:58.541Z,68.6
2017-09-29T08:12:58.562Z,67.38
2017-09-29T08:13:58.905Z,67.74
2017-09-29T08:14:58.922Z,67.77
2017-09-29T08:15:58.623Z,67.77
2017-09-29T08:16:58.963Z,67.48
2017-09-29T08:17:58.989Z,67.68
2017-09-29T08:18:58.692Z,67.68
2017-09-29T08:19:59.042Z,67.48
2017-09-29T08:20:59.050Z,67.1
2017-09-29T08:21:59.100Z,67.1
2017-09-29T08:22:58.774Z,67.68
2017-09-29T08:23:59.109Z,67.1
2017-09-29T08:24:59.130Z,67.22
2017-09-29T08:25:59.157Z,66.84
2017-09-29T08:26:58.863Z,66.65
2017-09-29T08:27:59.200Z,66.74
2017-09-29T08:28:59.215Z,66.84
2017-09-29T08:29:59.235Z,66.27
2017-09-29T08:30:59.260Z,66.17
2017-09-29T08:31:58.955Z,66.17
2017-09-29T08:32:59.297Z,66.17
2017-09-29T08:33:58.997Z,66.17
2017-09-29T08:34:59.021Z,66.46
2017-09-29T08:35:59.041Z,66.55
2017-09-29T08:36:59.380Z,66.46
2017-09-29T08:37:59.079Z,66.46
2017-09-29T08:38:59.424Z,66.17
2017-09-29T08:39:59.481Z,65.88
2017-09-29T08:40:59.485Z,65.5
2017-09-29T08:41:59.500Z,66.27
2017-09-29T08:42:59.513Z,65.78
2017-09-29T08:43:59.525Z,65.78
2017-09-29T08:44:59.659Z,65.72
2017-09-29T08:45:59.582Z,66.07
2017-09-29T08:46:59.590Z,65.69
2017-09-29T08:47:59.615Z,65.59
2017-09-29T08:48:59.340Z,65.2
2017-09-29T08:49:59.336Z,65.5
2017-09-29T08:50:59.678Z,65.97
2017-09-29T08:51:59.700Z,66.01
2017-09-29T08:52:59.719Z,65.33
2017-09-29T08:53:59.744Z,65.14
2017-09-29T08:54:59.484Z,64.86
2017-09-29T08:55:59.486Z,65.33
2017-09-29T08:56:59.482Z,65.43
2017-09-29T08:57:59.509Z,65.05
2017-09-29T08:58:59.933Z,65.43
2017-09-29T08:59:59.543Z,64.95
2017-09-29T09:00:59.890Z,64.95
2017-09-29T09:01:59.585Z,65.14
2017-09-29T09:02:59.618Z,64.56
2017-09-29T09:03:59.639Z,64.56
2017-09-29T09:04:59.978Z,64.66
2017-09-29T09:05:59.681Z,64.66
2017-09-29T09:07:00.021Z,64.76
2017-09-29T09:08:00.034Z,63.99
2017-09-29T09:08:59.743Z,64.21
2017-09-29T09:10:00.082Z,64.02
2017-09-29T09:11:00.103Z,64.59
2017-09-29T09:12:00.002Z,64.59
2017-09-29T09:12:59.821Z,64.02
2017-09-29T09:13:59.841Z,63.64
2017-09-29T09:15:00.190Z,64.5
2017-09-29T09:16:00.216Z,64.02
2017-09-29T09:16:59.907Z,63.82
2017-09-29T09:18:00.252Z,63.73
2017-09-29T09:18:59.956Z,63.57
2017-09-29T09:20:00.297Z,63.38
2017-09-29T09:21:00.315Z,63.09
2017-09-29T09:22:00.342Z,63.28
2017-09-29T09:23:00.565Z,63.18
2017-09-29T09:24:00.383Z,62.6
2017-09-29T09:25:00.408Z,62.7
2017-09-29T09:26:00.105Z,62.7
2017-09-29T09:27:00.457Z,62.6
2017-09-29T09:28:00.152Z,62.7
2017-09-29T09:29:00.169Z,62.63
2017-09-29T09:30:00.524Z,62.35
2017-09-29T09:31:00.538Z,62.45
2017-09-29T09:32:00.242Z,62.63
2017-09-29T09:33:00.259Z,62.73
2017-09-29T09:34:00.603Z,62.15
2017-09-29T09:35:00.300Z,62.54
2017-09-29T09:36:00.415Z,62.63
2017-09-29T09:37:00.408Z,62.63
2017-09-29T09:38:00.695Z,61.77
2017-09-29T09:39:00.712Z,61.68
2017-09-29T09:40:00.442Z,61.68
2017-09-29T09:41:00.757Z,61.77
2017-09-29T09:42:00.851Z,61.87
2017-09-29T09:43:00.493Z,61.22
2017-09-29T09:44:00.507Z,61.68
2017-09-29T09:45:00.524Z,61.99
2017-09-29T09:46:00.868Z,60.93
2017-09-29T09:47:15.458Z,60.83
2017-09-29T09:48:00.598Z,61.03
2017-09-29T09:49:00.935Z,60.93
2017-09-29T09:50:00.961Z,61.8
2017-09-29T09:51:00.979Z,61.99
2017-09-29T09:52:00.678Z,61.41
2017-09-29T09:53:00.702Z,61.71
2017-09-29T09:54:00.737Z,61.61
2017-09-29T09:55:01.067Z,61.35
2017-09-29T09:56:01.204Z,60.96
2017-09-29T09:57:01.112Z,60.48
2017-09-29T09:58:00.814Z,61.16
2017-09-29T09:59:01.157Z,60.96
2017-09-29T10:00:01.179Z,60.68
2017-09-29T10:01:01.200Z,60.58
2017-09-29T10:02:01.223Z,60.48
2017-09-29T10:03:01.257Z,60.38
2017-09-29T10:04:01.276Z,60.28
2017-09-29T10:05:01.289Z,60.68
2017-09-29T10:06:00.993Z,60.71
2017-09-29T10:07:01.023Z,60.41
2017-09-29T10:08:01.357Z,60.31
2017-09-29T10:09:01.379Z,60.22
2017-09-29T10:10:01.401Z,59.93
2017-09-29T10:11:01.104Z,59.83
2017-09-29T10:12:01.127Z,59.93
2017-09-29T10:13:01.471Z,59.55
2017-09-29T10:14:01.495Z,59.16
2017-09-29T10:15:01.520Z,59.16
2017-09-29T10:16:01.681Z,59.28
2017-09-29T10:17:01.570Z,59.06
2017-09-29T10:18:01.591Z,59
2017-09-29T10:19:01.605Z,58.8
2017-09-29T10:20:01.316Z,58.7
2017-09-29T10:21:01.540Z,58.7
2017-09-29T10:22:01.676Z,58.51
2017-09-29T10:23:01.702Z,58.7
2017-09-29T10:24:01.725Z,59.09
2017-09-29T10:25:01.785Z,58.73
2017-09-29T10:26:01.772Z,59.02
2017-09-29T10:27:01.793Z,58.35
2017-09-29T10:28:01.499Z,58.25
2017-09-29T10:29:01.516Z,58.06
2017-09-29T10:30:01.864Z,58.15
2017-09-29T10:31:01.888Z,57.77
2017-09-29T10:32:01.912Z,58.15
2017-09-29T10:33:01.941Z,57.77
2017-09-29T10:34:01.956Z,58.06
2017-09-29T10:35:01.656Z,58.09
2017-09-29T10:36:01.680Z,57.89
2017-09-29T10:37:02.023Z,57.99
2017-09-29T10:38:02.046Z,58.18
2017-09-29T10:39:02.074Z,57.89
2017-09-29T10:40:01.771Z,57.92
2017-09-29T10:41:02.117Z,57.89
2017-09-29T10:42:01.832Z,57.34
2017-09-29T10:43:02.170Z,57.34
2017-09-29T10:44:02.190Z,56.95
2017-09-29T10:45:02.216Z,57.54
2017-09-29T10:46:02.238Z,56.88
2017-09-29T10:47:01.945Z,56.3
2017-09-29T10:48:02.345Z,56.6
2017-09-29T10:49:02.305Z,56.11
2017-09-29T10:50:02.332Z,56.02
2017-09-29T10:51:02.034Z,56.11
2017-09-29T10:52:02.381Z,56.11
2017-09-29T10:53:02.407Z,56.3
2017-09-29T10:54:02.102Z,55.63
2017-09-29T10:55:02.451Z,54.95
2017-09-29T10:56:02.483Z,55.05
2017-09-29T10:57:02.185Z,54.95
2017-09-29T10:58:02.199Z,55.05
2017-09-29T10:59:02.230Z,54.95
2017-09-29T11:00:02.248Z,55.43
2017-09-29T11:01:02.596Z,54.66
2017-09-29T11:02:02.619Z,55.05
2017-09-29T11:03:02.646Z,55.56
2017-09-29T11:04:02.455Z,54.95
2017-09-29T11:05:02.387Z,54.75
2017-09-29T11:06:02.403Z,55.34
2017-09-29T11:07:02.427Z,55.46
2017-09-29T11:08:02.761Z,55.56
2017-09-29T11:09:17.357Z,55.46
2017-09-29T11:10:02.815Z,54.59
2017-09-29T11:11:02.838Z,54.79
2017-09-29T11:12:02.553Z,54.49
2017-09-29T11:13:02.888Z,54.98
2017-09-29T11:14:03.059Z,55.07
2017-09-29T11:15:02.933Z,55.17
2017-09-29T11:16:02.636Z,54.43
2017-09-29T11:17:03.018Z,54.52
2017-09-29T11:18:03.083Z,54.11
2017-09-29T11:19:03.030Z,54.23
2017-09-29T11:20:02.753Z,54.13
2017-09-29T11:21:03.080Z,54.03
2017-09-29T11:22:02.782Z,53.75
2017-09-29T11:23:03.233Z,53.94
2017-09-29T11:24:03.259Z,53.55
2017-09-29T11:25:02.856Z,53.65
2017-09-29T11:26:03.222Z,53.65
2017-09-29T11:27:03.225Z,53.45
2017-09-29T11:28:02.955Z,53.58
2017-09-29T11:29:03.275Z,53.58
2017-09-29T11:30:03.306Z,53.07
2017-09-29T11:31:03.012Z,53.29
2017-09-29T11:32:03.376Z,53.29
2017-09-29T11:33:03.375Z,53.29
2017-09-29T11:34:03.213Z,53.09
2017-09-29T11:35:03.195Z,53.09
2017-09-29T11:36:03.493Z,53
2017-09-29T11:37:03.480Z,52.8
2017-09-29T11:38:03.184Z,53
2017-09-29T11:39:03.202Z,52.51
2017-09-29T11:40:03.553Z,52.61
2017-09-29T11:41:03.575Z,52.71
2017-09-29T11:42:03.311Z,52.22
2017-09-29T11:43:03.626Z,52.34
2017-09-29T11:44:03.344Z,52.44
2017-09-29T11:45:03.682Z,52.06
2017-09-29T11:46:03.702Z,52.15
2017-09-29T11:47:03.406Z,51.86
2017-09-29T11:48:03.769Z,51.67
2017-09-29T11:49:03.781Z,51.67
2017-09-29T11:50:03.490Z,51.47
2017-09-29T11:51:03.828Z,51.67
2017-09-29T11:52:03.853Z,51.47
2017-09-29T11:53:03.887Z,51.47
2017-09-29T11:54:04.017Z,51.37
2017-09-29T11:55:03.612Z,51.28
2017-09-29T11:56:03.678Z,50.99
2017-09-29T11:57:03.983Z,51.09
2017-09-29T11:58:03.681Z,51.09
2017-09-29T11:59:04.035Z,50.99
2017-09-29T12:00:04.060Z,50.89
2017-09-29T12:01:03.761Z,50.7
2017-09-29T12:02:04.107Z,50.92
2017-09-29T12:03:03.811Z,50.43
2017-09-29T12:04:04.172Z,50.14
2017-09-29T12:05:04.187Z,49.95
2017-09-29T12:06:04.210Z,49.85
2017-09-29T12:07:04.238Z,49.95
2017-09-29T12:08:04.264Z,49.85
2017-09-29T12:09:04.284Z,49.75
2017-09-29T12:10:03.999Z,49.95
2017-09-29T12:11:04.017Z,50.04
2017-09-29T12:12:04.368Z,49.85
2017-09-29T12:13:04.388Z,49.75
2017-09-29T12:14:04.413Z,50.24
2017-09-29T12:15:04.445Z,50.04
2017-09-29T12:16:04.667Z,50.24
2017-09-29T12:17:04.497Z,49.75
2017-09-29T12:18:04.516Z,49.85
2017-09-29T12:19:04.220Z,49.95
2017-09-29T12:20:04.246Z,49.56
2017-09-29T12:21:04.600Z,49.37
2017-09-29T12:22:04.311Z,49.17
2017-09-29T12:23:04.647Z,48.88
2017-09-29T12:24:04.674Z,49.07
2017-09-29T12:25:04.702Z,48.59
2017-09-29T12:26:04.727Z,48.97
2017-09-29T12:27:04.792Z,49
2017-09-29T12:28:04.778Z,48.9
2017-09-29T12:29:04.810Z,48.9
2017-09-29T12:30:04.830Z,49
2017-09-29T12:31:04.532Z,48.97
2017-09-29T12:32:04.885Z,48.9
2017-09-29T12:33:04.918Z,48.61
2017-09-29T12:34:04.937Z,48.61
2017-09-29T12:35:05.060Z,48.61
2017-09-29T12:36:04.664Z,48.8
2017-09-29T12:37:04.685Z,48.71
2017-09-29T12:38:05.163Z,48.8
2017-09-29T12:39:05.213Z,49
2017-09-29T12:40:05.185Z,48.9
2017-09-29T12:41:05.183Z,49
2017-09-29T12:42:04.909Z,48.71
2017-09-29T12:43:05.209Z,48.8
2017-09-29T12:44:05.068Z,49.1
2017-09-29T12:45:04.895Z,49
2017-09-29T12:46:04.922Z,48.71
2017-09-29T12:47:05.278Z,48.9
2017-09-29T12:48:04.980Z,48.9
2017-09-29T12:49:05.001Z,48.8
2017-09-29T12:50:05.028Z,48.8
2017-09-29T12:51:05.378Z,48.71
2017-09-29T12:52:05.080Z,49.32
2017-09-29T12:53:05.106Z,49.22
2017-09-29T12:54:05.132Z,49.32
2017-09-29T12:55:05.169Z,49.02
2017-09-29T12:56:05.506Z,49.22